Time;durP1;ratioP1;P1;durP2;ratioP2;P2;SDS_P1;SDS_P2;PMS_P1;PMS_P2;Temp;Humidity;BMP_temperature;BMP_pressure;BME280_temperature;BME280_humidity;BME280_pressure;Samples;Min_cycle;Max_cycle;Signal;HPM_P1;HPM_P2
2022/04/12 00:00:11;;;;;;;;;;;;;;;17.34;49.98;101202.59;6256611;22;19915;-78
2022/04/12 00:02:36;;;;;;;;;;;;;;;17.34;49.78;101192.19;6282432;22;19914;-77
2022/04/12 00:05:02;;;;;;;;;;;;;;;17.34;49.93;101197.41;6282341;22;19910;-78
2022/04/12 00:07:28;;;;;;;;;;;;;;;17.34;49.72;101194.78;6309501;22;19960;-77
2022/04/12 00:09:53;;;;;;;;;;;;;;;17.36;49.83;101202.59;6283525;22;19911;-78
2022/04/12 00:12:19;;;;;;;;;;;;;;;17.33;49.79;101200.84;6289065;22;20308;-78
2022/04/12 00:14:44;;;;;;;;;;;;;;;17.35;49.94;101208.66;6288797;22;19907;-79
2022/04/12 00:19:53;;;;;;;;;;;;;;;17.34;49.88;101207.78;6324389;22;19917;-78
2022/04/12 00:22:19;;;;;;;;;;;;;;;17.33;50.13;101205.19;6296020;22;19911;-78
2022/04/12 00:24:44;;;;;;;;;;;;;;;17.32;50.10;101206.94;6291713;22;19917;-78
2022/04/12 00:27:10;;;;;;;;;;;;;;;17.33;49.90;101216.44;6319539;22;19911;-78
2022/04/12 00:29:36;;;;;;;;;;;;;;;17.33;49.94;101211.25;6291454;22;19911;-79
2022/04/12 00:32:02;;;;;;;;;;;;;;;17.31;49.80;101213.03;6318658;22;19992;-78
2022/04/12 00:34:27;;;;;;;;;;;;;;;17.32;49.64;101214.75;6289943;22;19914;-78
2022/04/12 00:36:52;;;;;;;;;;;;;;;17.32;49.73;101206.94;6317966;22;19918;-77
2022/04/12 00:39:25;;;;;;;;;;;;;;;17.33;49.98;101207.78;6263619;22;19994;-78
2022/04/12 00:41:50;;;;;;;;;;;;;;;17.32;50.05;101206.06;6314670;22;20220;-78
2022/04/12 00:44:16;;;;;;;;;;;;;;;17.33;49.84;101202.59;6283916;22;19918;-78
2022/04/12 00:46:41;;;;;;;;;;;;;;;17.32;49.96;101204.34;6283078;22;19922;-78
2022/04/12 00:49:07;;;;;;;;;;;;;;;17.33;49.92;101210.41;6257541;22;19911;-78
2022/04/12 00:51:33;;;;;;;;;;;;;;;17.32;49.59;101204.34;6283345;22;19942;-78
2022/04/12 00:53:58;;;;;;;;;;;;;;;17.32;49.81;101206.94;6256820;22;19918;-78
2022/04/12 00:56:24;;;;;;;;;;;;;;;17.32;49.85;101211.28;6282654;22;19907;-78
2022/04/12 00:58:50;;;;;;;;;;;;;;;17.33;50.07;101207.78;6309966;22;20362;-78
2022/04/12 01:01:15;;;;;;;;;;;;;;;17.32;49.90;101208.69;6315312;22;19907;-77
2022/04/12 01:03:41;;;;;;;;;;;;;;;17.32;49.92;101204.34;6290043;22;20350;-77
2022/04/12 01:06:07;;;;;;;;;;;;;;;17.32;50.16;101206.94;6263168;22;20316;-78
2022/04/12 01:08:33;;;;;;;;;;;;;;;17.32;50.00;101213.88;6289200;22;19911;-78
2022/04/12 01:11:04;;;;;;;;;;;;;;;17.31;49.88;101201.72;6288215;22;20290;-78
2022/04/12 01:13:30;;;;;;;;;;;;;;;17.32;49.97;101206.06;6287522;22;19911;-78
2022/04/12 01:15:55;;;;;;;;;;;;;;;17.30;49.91;101193.06;6314230;22;19996;-78
2022/04/12 01:18:20;;;;;;;;;;;;;;;17.30;49.91;101195.66;6262437;22;19934;-78
2022/04/12 01:20:45;;;;;;;;;;;;;;;17.31;49.84;101196.53;6263604;22;19961;-78
2022/04/12 01:23:34;;;;;;;;;;;;;;;17.30;50.08;101194.81;6289305;22;20340;-78
2022/04/12 01:25:59;;;;;;;;;;;;;;;17.30;50.10;101208.66;6273219;22;19911;-78
2022/04/12 01:28:25;;;;;;;;;;;;;;;17.30;49.90;101206.06;6315795;22;19961;-78
2022/04/12 01:30:51;;;;;;;;;;;;;;;17.31;50.14;101197.41;6263070;22;19945;-78
2022/04/12 01:33:16;;;;;;;;;;;;;;;17.30;50.11;101187.00;6314462;22;19951;-78
2022/04/12 01:35:42;;;;;;;;;;;;;;;17.29;49.92;101186.16;6316306;22;19958;-78
2022/04/12 01:38:08;;;;;;;;;;;;;;;17.30;50.14;101187.00;6288699;22;19907;-78
2022/04/12 01:40:34;;;;;;;;;;;;;;;17.29;49.89;101196.56;6285108;22;19911;-78
2022/04/12 01:42:59;;;;;;;;;;;;;;;17.30;49.82;101192.22;6284059;22;19911;-78
2022/04/12 01:45:24;;;;;;;;;;;;;;;17.29;49.87;101196.56;6284014;22;19907;-79
2022/04/12 01:47:50;;;;;;;;;;;;;;;17.29;49.92;101193.94;6311116;22;20239;-79
2022/04/12 01:50:15;;;;;;;;;;;;;;;17.28;49.91;101192.19;6283984;22;19914;-78
2022/04/12 01:52:40;;;;;;;;;;;;;;;17.26;49.90;101184.41;6285382;22;19988;-78
2022/04/12 01:55:06;;;;;;;;;;;;;;;17.27;49.93;101172.28;6293156;22;19990;-79
2022/04/12 01:57:31;;;;;;;;;;;;;;;17.26;50.24;101163.59;6296931;22;19976;-79
2022/04/12 01:59:57;;;;;;;;;;;;;;;17.26;49.86;101158.38;6295673;22;19958;-79
2022/04/12 02:02:23;;;;;;;;;;;;;;;17.26;50.14;101160.97;6289929;22;19907;-79
2022/04/12 02:04:48;;;;;;;;;;;;;;;17.25;49.91;101156.66;6316960;22;19911;-79
2022/04/12 02:07:13;;;;;;;;;;;;;;;17.27;49.98;101161.88;6298762;22;19911;-79
2022/04/12 02:09:38;;;;;;;;;;;;;;;17.27;50.15;101154.06;6298274;22;19953;-78
2022/04/12 02:12:04;;;;;;;;;;;;;;;17.26;49.92;101154.94;6292091;22;19931;-78
2022/04/12 02:14:29;;;;;;;;;;;;;;;17.24;50.08;101160.13;6266020;22;19910;-78
2022/04/12 02:16:54;;;;;;;;;;;;;;;17.24;50.31;101152.31;6319326;22;19915;-78
2022/04/12 02:19:20;;;;;;;;;;;;;;;17.24;50.12;101143.66;6291226;22;19919;-78
2022/04/12 02:21:45;;;;;;;;;;;;;;;17.24;50.07;101149.72;6291971;22;19950;-78
2022/04/12 02:24:10;;;;;;;;;;;;;;;17.25;50.01;101153.22;6292929;22;19911;-78
2022/04/12 02:26:35;;;;;;;;;;;;;;;17.24;49.99;101151.47;6321404;22;19911;-78
2022/04/12 02:29:01;;;;;;;;;;;;;;;17.23;50.01;101158.41;6320307;22;19911;-78
2022/04/12 02:31:26;;;;;;;;;;;;;;;17.22;50.02;101145.41;6292637;22;19982;-79
2022/04/12 02:33:51;;;;;;;;;;;;;;;17.22;49.94;101141.09;6266959;22;19915;-78
2022/04/12 02:36:16;;;;;;;;;;;;;;;17.21;50.12;101125.47;6292907;22;19907;-78
2022/04/12 02:38:42;;;;;;;;;;;;;;;17.21;50.20;101121.13;6292862;22;19937;-78
2022/04/12 02:41:07;;;;;;;;;;;;;;;17.21;49.89;101120.28;6291699;22;19933;-78
2022/04/12 02:43:32;;;;;;;;;;;;;;;17.21;49.77;101112.47;6292013;22;19906;-78
2022/04/12 02:45:58;;;;;;;;;;;;;;;17.20;50.11;101103.81;6312878;22;20328;-78
2022/04/12 02:48:24;;;;;;;;;;;;;;;17.20;49.95;101102.91;6284941;22;19942;-77
2022/04/12 02:50:49;;;;;;;;;;;;;;;17.20;49.97;101100.31;6285060;22;19956;-78
2022/04/12 02:53:14;;;;;;;;;;;;;;;17.20;50.19;101105.53;6259069;22;19911;-77
2022/04/12 02:55:39;;;;;;;;;;;;;;;17.20;50.15;101108.13;6258388;22;19950;-78
2022/04/12 02:58:05;;;;;;;;;;;;;;;17.20;49.98;101102.91;6284462;22;20342;-77
2022/04/12 03:00:30;;;;;;;;;;;;;;;17.19;50.05;101102.06;6321084;22;19911;-78
2022/04/12 03:02:55;;;;;;;;;;;;;;;17.20;50.11;101095.13;6294893;22;19914;-77
2022/04/12 03:05:20;;;;;;;;;;;;;;;17.19;49.89;101104.66;6289724;22;19977;-77
2022/04/12 03:07:46;;;;;;;;;;;;;;;17.19;50.22;101114.22;6286235;22;19907;-78
2022/04/12 03:10:11;;;;;;;;;;;;;;;17.17;49.90;101114.22;6264098;22;19910;-78
2022/04/12 03:12:37;;;;;;;;;;;;;;;17.18;49.96;101104.66;6293107;22;19911;-78
2022/04/12 03:15:03;;;;;;;;;;;;;;;17.16;50.01;101096.88;6320287;22;19910;-78
2022/04/12 03:17:29;;;;;;;;;;;;;;;17.16;49.98;101101.19;6293245;22;20037;-78
2022/04/12 03:19:56;;;;;;;;;;;;;;;17.18;49.90;101104.66;6291565;22;19917;-78
2022/04/12 03:22:22;;;;;;;;;;;;;;;17.16;49.82;101102.09;6291508;22;19911;-78
2022/04/12 03:24:47;;;;;;;;;;;;;;;17.18;49.89;101102.06;6292869;22;19959;-78
2022/04/12 03:27:13;;;;;;;;;;;;;;;17.17;50.06;101105.53;6319717;22;19938;-78
2022/04/12 03:29:38;;;;;;;;;;;;;;;17.16;50.02;101103.81;6264863;22;19911;-78
2022/04/12 03:32:06;;;;;;;;;;;;;;;17.16;49.83;101104.69;6291380;22;19911;-78
2022/04/12 03:34:31;;;;;;;;;;;;;;;17.16;49.94;101099.50;6318700;22;19913;-79
2022/04/12 03:36:58;;;;;;;;;;;;;;;17.15;49.93;101102.09;6317478;22;19907;-78
2022/04/12 03:39:25;;;;;;;;;;;;;;;17.15;50.19;101108.16;6315997;22;20304;-78
2022/04/12 03:41:51;;;;;;;;;;;;;;;17.14;50.24;101103.81;6315081;22;19914;-78
2022/04/12 03:44:17;;;;;;;;;;;;;;;17.14;49.92;101102.97;6315655;22;19907;-78
2022/04/12 03:46:42;;;;;;;;;;;;;;;17.15;49.84;101089.94;6317354;22;19907;-78
2022/04/12 03:49:08;;;;;;;;;;;;;;;17.14;49.91;101083.03;6286097;22;19915;-78
2022/04/12 03:51:35;;;;;;;;;;;;;;;17.14;49.90;101085.63;6283491;22;19907;-78
2022/04/12 03:54:00;;;;;;;;;;;;;;;17.14;49.93;101083.03;6283152;22;19915;-78
2022/04/12 03:56:27;;;;;;;;;;;;;;;17.13;49.81;101083.88;6283323;22;19907;-78
2022/04/12 03:58:53;;;;;;;;;;;;;;;17.14;50.17;101092.56;6282471;22;19918;-78
2022/04/12 04:01:18;;;;;;;;;;;;;;;17.13;50.04;101083.88;6285166;22;19906;-78
2022/04/12 04:03:45;;;;;;;;;;;;;;;17.13;49.86;101080.41;6287108;22;19913;-78
2022/04/12 04:06:11;;;;;;;;;;;;;;;17.13;49.94;101078.69;6316401;22;19907;-78
2022/04/12 04:08:36;;;;;;;;;;;;;;;17.12;50.02;101073.50;6316273;22;19911;-78
2022/04/12 04:11:01;;;;;;;;;;;;;;;17.13;50.02;101076.06;6263343;22;20283;-78
2022/04/12 04:13:30;;;;;;;;;;;;;;;17.12;49.81;101089.09;6290298;22;19942;-78
2022/04/12 04:15:55;;;;;;;;;;;;;;;17.12;49.66;101095.16;6290811;22;19961;-78
2022/04/12 04:18:21;;;;;;;;;;;;;;;17.12;50.03;101092.56;6287969;22;19915;-78
2022/04/12 04:20:46;;;;;;;;;;;;;;;17.14;49.84;101097.78;6288404;22;19921;-78
2022/04/12 04:23:11;;;;;;;;;;;;;;;17.14;49.80;101108.16;6289064;22;19910;-78
2022/04/12 04:25:39;;;;;;;;;;;;;;;17.13;49.72;101109.03;6262549;22;19915;-78
2022/04/12 04:28:05;;;;;;;;;;;;;;;17.12;49.74;101102.13;6288556;22;20246;-78
2022/04/12 04:30:33;;;;;;;;;;;;;;;17.12;49.83;101107.31;6288146;22;19906;-78
2022/04/12 04:32:59;;;;;;;;;;;;;;;17.12;49.85;101104.72;6261447;22;19918;-78
2022/04/12 04:35:25;;;;;;;;;;;;;;;17.11;49.90;101097.75;6286084;22;19907;-78
2022/04/12 04:37:50;;;;;;;;;;;;;;;17.11;49.88;101101.22;6314032;22;19906;-78
2022/04/12 04:40:17;;;;;;;;;;;;;;;17.10;50.03;101085.66;6288656;22;20335;-79
2022/04/12 04:42:42;;;;;;;;;;;;;;;17.11;50.02;101085.63;6288587;22;20328;-79
2022/04/12 04:45:08;;;;;;;;;;;;;;;17.11;49.81;101069.16;6288744;22;19907;-78
2022/04/12 04:47:34;;;;;;;;;;;;;;;17.09;49.65;101053.56;6285138;22;19910;-79
2022/04/12 04:50:01;;;;;;;;;;;;;;;17.10;49.83;101064.84;6282839;22;19914;-78
2022/04/12 04:52:26;;;;;;;;;;;;;;;17.10;49.76;101062.25;6258127;22;19911;-79
2022/04/12 04:54:51;;;;;;;;;;;;;;;17.09;49.81;101061.34;6283837;22;19915;-79
2022/04/12 04:57:16;;;;;;;;;;;;;;;17.08;49.85;101059.63;6258167;22;19911;-79
2022/04/12 05:05:48;;;;;;;;;;;;;;;17.10;49.94;101059.66;6336482;22;19949;-82
2022/04/12 05:11:20;;;;;;;;;;;;;;;17.13;49.94;101068.28;6332470;22;19938;-79
2022/04/12 05:13:46;;;;;;;;;;;;;;;17.12;49.92;101057.91;6310837;22;20316;-78
2022/04/12 05:16:11;;;;;;;;;;;;;;;17.15;49.79;101073.47;6316364;22;19907;-79
2022/04/12 05:18:37;;;;;;;;;;;;;;;17.14;50.07;101077.81;6289875;22;19974;-79
2022/04/12 05:21:13;;;;;;;;;;;;;;;17.15;50.23;101084.75;6301730;22;19899;-81
2022/04/12 05:23:38;;;;;;;;;;;;;;;17.16;49.99;101094.28;6267672;22;20282;-80
2022/04/12 05:26:04;;;;;;;;;;;;;;;17.16;50.09;101086.50;6316047;22;20029;-78
2022/04/12 05:28:31;;;;;;;;;;;;;;;17.17;50.02;101088.19;6287203;22;19931;-79
2022/04/12 05:30:56;;;;;;;;;;;;;;;17.18;49.93;101099.47;6290400;22;19906;-79
2022/04/12 05:33:21;;;;;;;;;;;;;;;17.19;50.12;101103.81;6289888;22;19911;-79
2022/04/12 05:35:48;;;;;;;;;;;;;;;17.19;50.12;101099.47;6263064;22;19911;-78
2022/04/12 05:38:13;;;;;;;;;;;;;;;17.20;49.96;101088.22;6291754;22;19917;-79
2022/04/12 05:40:38;;;;;;;;;;;;;;;17.22;50.09;101088.19;6287346;22;19997;-78
2022/04/12 05:43:04;;;;;;;;;;;;;;;17.23;50.08;101088.19;6316029;22;19960;-78
2022/04/12 05:45:29;;;;;;;;;;;;;;;17.24;50.23;101087.28;6266854;22;19965;-79
2022/04/12 05:47:55;;;;;;;;;;;;;;;17.26;50.26;101100.31;6297693;22;19995;-79
2022/04/12 05:50:21;;;;;;;;;;;;;;;17.28;50.22;101101.16;6288041;22;19935;-78
2022/04/12 05:52:47;;;;;;;;;;;;;;;17.31;50.21;101108.97;6287170;22;19994;-79
2022/04/12 05:55:16;;;;;;;;;;;;;;;17.37;50.09;101106.31;6313986;22;19907;-78
2022/04/12 05:57:49;;;;;;;;;;;;;;;17.45;49.93;101114.09;6289933;22;19911;-79
2022/04/12 06:00:14;;;;;;;;;;;;;;;17.52;49.73;101109.75;6291229;22;19918;-80
2022/04/12 06:02:41;;;;;;;;;;;;;;;17.60;49.54;101102.75;6264595;22;19911;-80
2022/04/12 06:05:08;;;;;;;;;;;;;;;17.65;49.83;101098.38;6269774;22;19911;-80
2022/04/12 06:07:34;;;;;;;;;;;;;;;17.68;49.76;101106.16;6308028;22;20234;-80
2022/04/12 06:10:00;;;;;;;;;;;;;;;17.74;49.58;101106.13;6334339;22;19899;-80
2022/04/12 06:12:25;;;;;;;;;;;;;;;17.77;49.52;101106.13;6299763;22;19907;-80
2022/04/12 06:14:50;;;;;;;;;;;;;;;17.82;49.70;101104.38;6296180;22;19960;-80
2022/04/12 06:17:16;;;;;;;;;;;;;;;17.87;49.44;101101.75;6307238;22;19922;-80
2022/04/12 06:19:41;;;;;;;;;;;;;;;17.90;49.37;101091.34;6307551;22;19895;-80
2022/04/12 06:22:06;;;;;;;;;;;;;;;17.94;49.30;101086.94;6299131;22;19907;-79
2022/04/12 06:24:32;;;;;;;;;;;;;;;17.94;49.24;101079.16;6299365;22;19907;-79
2022/04/12 06:26:57;;;;;;;;;;;;;;;17.96;49.22;101074.78;6270925;22;20243;-80
2022/04/12 06:29:22;;;;;;;;;;;;;;;17.98;49.13;101078.25;6295864;22;19982;-80
2022/04/12 06:31:48;;;;;;;;;;;;;;;18.02;49.05;101085.16;6295488;22;19907;-79
2022/04/12 06:34:13;;;;;;;;;;;;;;;18.04;49.07;101089.47;6296049;22;19978;-80
2022/04/12 06:36:39;;;;;;;;;;;;;;;18.04;49.12;101075.59;6295971;22;19914;-81
2022/04/12 06:39:04;;;;;;;;;;;;;;;18.07;48.98;101072.97;6295664;22;19935;-81
2022/04/12 06:41:29;;;;;;;;;;;;;;;18.08;49.19;101078.16;6289717;22;19918;-79
2022/04/12 06:43:58;;;;;;;;;;;;;;;18.11;48.95;101082.50;6320215;22;19914;-79
2022/04/12 06:46:24;;;;;;;;;;;;;;;18.12;48.95;101091.16;6292966;22;19907;-80
2022/04/12 06:48:49;;;;;;;;;;;;;;;18.12;49.06;101086.84;6292631;22;20320;-79
2022/04/12 06:51:14;;;;;;;;;;;;;;;18.14;48.99;101082.47;6290533;22;20651;-79
2022/04/12 06:53:40;;;;;;;;;;;;;;;18.12;48.80;101089.44;6290971;22;19911;-79
2022/04/12 06:56:06;;;;;;;;;;;;;;;18.11;48.81;101087.69;6268074;22;19960;-79
2022/04/12 06:58:33;;;;;;;;;;;;;;;18.10;48.87;101083.38;6267057;22;19918;-80
2022/04/12 07:00:58;;;;;;;;;;;;;;;18.08;49.00;101087.72;6321252;22;19916;-80
2022/04/12 07:03:23;;;;;;;;;;;;;;;18.09;48.81;101084.25;6294549;22;19958;-80
2022/04/12 07:05:49;;;;;;;;;;;;;;;18.10;48.84;101078.16;6320747;22;19911;-80
2022/04/12 07:08:14;;;;;;;;;;;;;;;18.11;48.71;101081.63;6297947;22;19907;-79
2022/04/12 07:10:42;;;;;;;;;;;;;;;18.13;48.82;101083.34;6296226;22;19911;-80
2022/04/12 07:13:07;;;;;;;;;;;;;;;18.13;48.81;101088.56;6293763;22;19907;-79
2022/04/12 07:15:32;;;;;;;;;;;;;;;18.14;48.69;101086.81;6265373;22;19961;-80
2022/04/12 07:17:59;;;;;;;;;;;;;;;18.14;48.57;101087.69;6268474;22;19911;-79
2022/04/12 07:20:24;;;;;;;;;;;;;;;18.15;48.54;101083.34;6266848;22;20336;-80
2022/04/12 07:22:50;;;;;;;;;;;;;;;18.15;48.69;101086.78;6293123;22;19917;-79
2022/04/12 07:25:17;;;;;;;;;;;;;;;18.17;48.56;101081.59;6288014;22;19911;-79
2022/04/12 07:27:42;;;;;;;;;;;;;;;18.17;48.44;101078.97;6318030;22;19913;-79
2022/04/12 07:30:08;;;;;;;;;;;;;;;18.18;48.58;101078.97;6291109;22;19930;-79
2022/04/12 07:32:33;;;;;;;;;;;;;;;18.18;48.51;101078.97;6320060;22;19911;-79
2022/04/12 07:34:58;;;;;;;;;;;;;;;18.20;48.45;101074.59;6266343;22;19922;-80
2022/04/12 07:37:24;;;;;;;;;;;;;;;18.22;48.50;101071.97;6263042;22;19910;-80
2022/04/12 07:39:49;;;;;;;;;;;;;;;18.25;48.55;101061.56;6289645;22;20004;-79
2022/04/12 07:42:15;;;;;;;;;;;;;;;18.24;48.39;101065.03;6295706;22;19911;-79
2022/04/12 07:44:41;;;;;;;;;;;;;;;18.24;48.40;101063.28;6300515;22;19972;-79
2022/04/12 07:47:06;;;;;;;;;;;;;;;18.25;48.46;101065.03;6271303;22;19911;-79
2022/04/12 07:49:32;;;;;;;;;;;;;;;18.29;48.57;101047.59;6302350;22;19922;-79
2022/04/12 07:51:57;;;;;;;;;;;;;;;18.33;48.50;101064.94;6276807;22;19911;-80
2022/04/12 07:54:25;;;;;;;;;;;;;;;18.35;48.29;101060.56;6303349;22;19891;-78
2022/04/12 07:56:51;;;;;;;;;;;;;;;18.38;48.32;101059.69;6329424;22;19907;-80
2022/04/12 07:59:23;;;;;;;;;;;;;;;18.40;48.28;101057.91;6304259;22;19955;-81
2022/04/12 08:01:48;;;;;;;;;;;;;;;18.38;48.21;101047.53;6297934;22;19907;-80
2022/04/12 08:04:14;;;;;;;;;;;;;;;18.39;48.32;101051.00;6297337;22;19928;-80
2022/04/12 08:06:40;;;;;;;;;;;;;;;18.38;48.30;101044.03;6324944;22;19911;-80
2022/04/12 08:09:05;;;;;;;;;;;;;;;18.37;48.32;101040.56;6299040;22;19911;-81
2022/04/12 08:11:31;;;;;;;;;;;;;;;18.37;48.39;101043.19;6326456;22;20446;-80
2022/04/12 08:13:57;;;;;;;;;;;;;;;18.37;48.45;101042.31;6189327;22;2011430;-80
2022/04/12 08:16:22;;;;;;;;;;;;;;;18.38;48.39;101047.53;6299977;22;20319;-80
2022/04/12 08:18:47;;;;;;;;;;;;;;;18.38;48.29;101059.69;6317657;22;20320;-80
2022/04/12 08:21:13;;;;;;;;;;;;;;;18.38;48.35;101057.06;6318585;22;19907;-80
2022/04/12 08:23:38;;;;;;;;;;;;;;;18.39;48.42;101056.22;6288898;22;19906;-80
2022/04/12 08:26:03;;;;;;;;;;;;;;;18.41;48.23;101064.88;6288806;22;19938;-80
2022/04/12 08:28:29;;;;;;;;;;;;;;;18.41;48.26;101073.56;6328597;22;19911;-80
2022/04/12 08:30:55;;;;;;;;;;;;;;;18.42;48.27;101069.19;6305880;22;19947;-80
2022/04/12 08:33:21;;;;;;;;;;;;;;;18.41;48.27;101068.34;6330391;22;19907;-80
2022/04/12 08:35:46;;;;;;;;;;;;;;;18.41;48.12;101072.69;6328175;22;19907;-80
2022/04/12 08:38:12;;;;;;;;;;;;;;;18.42;48.32;101064.88;6321888;22;19989;-80
2022/04/12 08:40:38;;;;;;;;;;;;;;;18.42;48.26;101066.59;6289709;22;20251;-80
2022/04/12 08:43:05;;;;;;;;;;;;;;;18.42;48.29;101070.09;6263241;22;19918;-80
2022/04/12 08:45:32;;;;;;;;;;;;;;;18.43;48.27;101063.97;6316476;22;19914;-80
2022/04/12 08:47:58;;;;;;;;;;;;;;;18.46;48.30;101052.66;6289820;22;19907;-80
2022/04/12 08:50:24;;;;;;;;;;;;;;;18.44;48.32;101051.81;6264800;22;19911;-80
2022/04/12 08:52:49;;;;;;;;;;;;;;;18.45;48.22;101049.19;6289749;22;19918;-80
2022/04/12 08:55:15;;;;;;;;;;;;;;;18.46;48.34;101050.06;6263361;22;20383;-80
2022/04/12 08:57:41;;;;;;;;;;;;;;;18.44;48.08;101042.28;6264738;22;19933;-80
2022/04/12 09:00:07;;;;;;;;;;;;;;;18.46;48.20;101039.63;6264229;22;19955;-80
2022/04/12 09:02:32;;;;;;;;;;;;;;;18.46;48.09;101035.28;6290325;22;19930;-80
2022/04/12 09:04:58;;;;;;;;;;;;;;;18.45;48.12;101033.56;6290443;22;19907;-80
2022/04/12 09:07:27;;;;;;;;;;;;;;;18.45;48.12;101027.50;6290351;22;19907;-80
2022/04/12 09:10:01;;;;;;;;;;;;;;;18.45;48.10;101022.28;6290580;22;20268;-80
2022/04/12 09:12:31;;;;;;;;;;;;;;;18.44;48.20;101023.16;6290277;22;19976;-80
2022/04/12 09:14:58;;;;;;;;;;;;;;;18.42;48.18;101025.78;6291264;22;19922;-80
2022/04/12 09:17:31;;;;;;;;;;;;;;;18.42;48.14;101028.38;6290986;22;19911;-80
2022/04/12 09:19:57;;;;;;;;;;;;;;;18.43;48.21;101029.25;6318836;22;19918;-80
2022/04/12 09:22:23;;;;;;;;;;;;;;;18.42;48.14;101024.91;6317641;22;20312;-80
2022/04/12 09:24:52;;;;;;;;;;;;;;;18.41;48.06;101016.22;6263409;22;19994;-80
2022/04/12 09:27:19;;;;;;;;;;;;;;;18.40;48.20;101009.31;6288960;22;19927;-80
2022/04/12 09:29:46;;;;;;;;;;;;;;;18.40;48.30;101001.47;6288203;22;19942;-79
2022/04/12 09:32:14;;;;;;;;;;;;;;;18.40;48.31;101009.31;6316797;22;20347;-80
2022/04/12 09:34:40;;;;;;;;;;;;;;;18.41;48.14;101021.44;6289480;22;19981;-80
2022/04/12 09:37:17;;;;;;;;;;;;;;;18.41;48.13;101026.66;6266174;22;19934;-80
2022/04/12 09:40:02;;;;;;;;;;;;;;;18.43;48.20;101024.91;6295538;22;19955;-81
2022/04/12 09:42:39;;;;;;;;;;;;;;;18.42;48.12;101041.41;6293042;22;19910;-80
2022/04/12 09:45:15;;;;;;;;;;;;;;;18.43;48.27;101024.03;6292257;22;19914;-79
2022/04/12 09:47:43;;;;;;;;;;;;;;;18.43;48.25;101024.91;6249220;22;19907;-83
2022/04/12 09:50:10;;;;;;;;;;;;;;;18.43;48.36;101034.47;6313041;22;19907;-79
2022/04/12 09:52:36;;;;;;;;;;;;;;;18.43;48.22;101029.25;6312439;22;19955;-79
2022/04/12 09:55:01;;;;;;;;;;;;;;;18.40;48.35;101027.53;6285764;22;19911;-79
2022/04/12 09:57:26;;;;;;;;;;;;;;;18.41;48.31;101024.03;6289518;22;19946;-78
2022/04/12 10:21:15;;;;;;;;;;;;;;;18.41;48.50;100969.31;6292965;22;19918;-79
2022/04/12 10:23:41;;;;;;;;;;;;;;;18.43;48.43;100975.38;6300190;22;19911;-79
2022/04/12 10:26:07;;;;;;;;;;;;;;;18.42;48.42;100971.06;6299360;22;19913;-79
2022/04/12 10:28:33;;;;;;;;;;;;;;;18.43;48.50;100964.97;6291622;22;20367;-79
2022/04/12 10:31:02;;;;;;;;;;;;;;;18.43;48.62;100964.09;6269534;22;19911;-79
2022/04/12 10:33:29;;;;;;;;;;;;;;;18.43;48.42;100951.06;6303168;22;19918;-80
2022/04/12 10:35:55;;;;;;;;;;;;;;;18.44;48.49;100958.00;6328462;22;19958;-79
2022/04/12 10:38:24;;;;;;;;;;;;;;;18.44;48.47;100958.88;6293675;22;19907;-79
2022/04/12 10:40:54;;;;;;;;;;;;;;;18.45;48.56;100954.53;6289512;22;19911;-79
2022/04/12 10:43:29;;;;;;;;;;;;;;;18.46;48.50;100943.22;6288276;22;19942;-79
2022/04/12 10:45:55;;;;;;;;;;;;;;;18.44;48.74;100948.47;6288239;22;19961;-79
2022/04/12 10:48:24;;;;;;;;;;;;;;;18.45;48.55;100951.94;6289097;22;19947;-79
2022/04/12 10:50:51;;;;;;;;;;;;;;;18.45;48.51;100952.78;6289343;22;19915;-80
2022/04/12 10:53:51;;;;;;;;;;;;;;;18.45;48.72;100959.75;6286126;22;20239;-79
2022/04/12 11:55:44;;;;;;;;;;;;;;;18.48;48.78;100936.25;6258383;22;20319;-79
2022/04/12 11:58:09;;;;;;;;;;;;;;;18.49;48.61;100932.78;6285668;22;19918;-79
2022/04/12 12:00:35;;;;;;;;;;;;;;;18.48;48.75;100918.00;6285824;22;19911;-79
2022/04/12 12:03:00;;;;;;;;;;;;;;;18.49;48.62;100919.75;6261839;22;20338;-80
2022/04/12 12:05:25;;;;;;;;;;;;;;;18.50;48.76;100918.84;6286371;22;19930;-79
2022/04/12 12:07:57;;;;;;;;;;;;;;;18.50;48.68;100924.06;6261672;22;19958;-79
2022/04/12 12:10:22;;;;;;;;;;;;;;;18.51;48.68;100931.00;6260021;22;19954;-79
2022/04/12 12:54:14;;;;;;;;;;;;;;;18.57;49.11;100911.81;6293770;22;20232;-80
2022/04/12 12:56:39;;;;;;;;;;;;;;;18.57;49.07;100907.47;6284875;22;20240;-80
2022/04/12 12:59:14;;;;;;;;;;;;;;;18.56;49.03;100915.31;6283445;22;19937;-80
2022/04/12 13:01:46;;;;;;;;;;;;;;;18.58;49.14;100905.75;6283377;22;19907;-80
2022/04/12 13:04:28;;;;;;;;;;;;;;;18.58;49.26;100898.78;6310607;22;19907;-80
2022/04/12 13:07:03;;;;;;;;;;;;;;;18.58;49.39;100900.53;6258752;22;19911;-80
2022/04/12 13:09:28;;;;;;;;;;;;;;;18.59;49.12;100903.09;6313583;22;20376;-80
2022/04/12 13:11:55;;;;;;;;;;;;;;;18.60;49.27;100903.97;6313850;22;19941;-80
2022/04/12 13:14:21;;;;;;;;;;;;;;;18.60;49.06;100910.03;6313843;22;19981;-80
2022/04/12 13:16:46;;;;;;;;;;;;;;;18.62;49.10;100910.03;6312981;22;19914;-79
2022/04/12 13:19:11;;;;;;;;;;;;;;;18.61;49.30;100901.31;6259306;22;19922;-80
2022/04/12 13:21:37;;;;;;;;;;;;;;;18.63;49.11;100893.50;6284850;22;19918;-79
2022/04/12 16:08:57;;;;;;;;;;;;;;;18.71;48.21;100884.69;6299984;22;20759;-82
2022/04/12 16:17:17;;;;;;;;;;;;;;;18.69;48.13;100878.63;6261734;22;19923;-81
2022/04/12 16:25:10;;;;;;;;;;;;;;;18.76;48.21;100889.00;6252117;22;19915;-80
2022/04/12 16:27:36;;;;;;;;;;;;;;;18.74;48.30;100896.81;6249508;22;20012;-78
2022/04/12 16:30:01;;;;;;;;;;;;;;;18.74;48.42;100906.41;6258013;22;19911;-79
2022/04/12 16:32:26;;;;;;;;;;;;;;;18.74;48.30;100914.22;6259835;22;19911;-78
2022/04/12 16:34:53;;;;;;;;;;;;;;;18.73;48.29;100917.69;6282271;22;19961;-78
2022/04/12 16:37:18;;;;;;;;;;;;;;;18.73;48.28;100920.28;6281277;22;19994;-79
2022/04/12 16:39:43;;;;;;;;;;;;;;;18.73;48.46;100922.91;6283978;22;19968;-79
2022/04/12 16:42:09;;;;;;;;;;;;;;;18.74;48.22;100920.28;6258064;22;19918;-79
2022/04/12 16:44:34;;;;;;;;;;;;;;;18.74;48.27;100919.44;6287319;22;19930;-80
2022/04/12 16:47:01;;;;;;;;;;;;;;;18.73;48.42;100908.16;6280566;22;20029;-79
2022/04/12 16:49:26;;;;;;;;;;;;;;;18.73;48.43;100913.34;6281305;22;19907;-78
2022/04/12 16:51:52;;;;;;;;;;;;;;;18.74;48.63;100916.81;6283297;22;19931;-79
2022/04/12 16:54:17;;;;;;;;;;;;;;;18.73;48.64;100920.28;6286788;22;19907;-79
2022/04/12 16:56:43;;;;;;;;;;;;;;;18.74;48.65;100922.03;6290799;22;19930;-80
2022/04/12 16:59:08;;;;;;;;;;;;;;;18.73;48.64;100921.19;6288891;22;20327;-79
2022/04/12 17:30:40;;;;;;;;;;;;;;;18.74;48.94;100955.94;6243446;22;19923;31
2022/04/12 17:33:13;;;;;;;;;;;;;;;18.73;48.92;100957.69;6231587;23;19920;-79
2022/04/12 17:35:39;;;;;;;;;;;;;;;18.73;48.91;100956.78;6234849;23;19912;-78
2022/04/12 17:38:05;;;;;;;;;;;;;;;18.72;48.81;100950.72;6235484;23;19915;-79
2022/04/12 17:40:30;;;;;;;;;;;;;;;18.72;48.99;100953.31;6180372;23;20293;-78
2022/04/12 17:42:55;;;;;;;;;;;;;;;18.73;48.92;100949.84;6180256;23;19912;-78
2022/04/12 17:45:20;;;;;;;;;;;;;;;18.71;49.00;100954.22;6199944;23;19915;-78
2022/04/12 17:47:46;;;;;;;;;;;;;;;18.72;49.01;100953.31;6197261;23;19912;-78
2022/04/12 17:50:11;;;;;;;;;;;;;;;18.71;48.99;100956.84;6171038;23;19939;-78
2022/04/12 17:52:37;;;;;;;;;;;;;;;18.71;48.92;100959.44;6193585;23;19915;-78
2022/04/12 17:55:03;;;;;;;;;;;;;;;18.71;49.12;100956.84;6168938;23;19912;-79
2022/04/12 17:57:28;;;;;;;;;;;;;;;18.72;49.03;100974.19;6170616;23;20333;-79
2022/04/12 17:59:57;;;;;;;;;;;;;;;18.71;48.98;100975.06;6195150;23;19962;-78
2022/04/12 18:02:22;;;;;;;;;;;;;;;18.71;49.31;100972.47;6219190;23;19938;-78
2022/04/12 18:04:52;;;;;;;;;;;;;;;18.72;49.16;100968.97;6192269;23;19908;-78
2022/04/12 18:07:17;;;;;;;;;;;;;;;18.71;49.37;100972.47;6192875;23;19936;-79
2022/04/12 18:09:43;;;;;;;;;;;;;;;18.71;49.19;100967.25;6167334;23;20350;-78